Monteview, Idaho
Current Conditions -  °F | °C
As of 4:53 AM on Monday 20 Oct 2014 (Local Time) from KRXE Reporting Station
Clear Clear  
Wind Chill: 30°   Ceiling: Unl
Heat Index: 34°   Visibility: 10mi
Dew Point: 29°   Wind: 5mph
Humidity: 82%   Direction: 60°ENE
Pressure: 30.07"   Gusts: NA
Location:  43.94°N, 112.54°W
Report Text: KRXE 201053Z AUTO 06004KT 10SM CLR 01/M02 A3007 RMK AO2 SLP168 T00111017
Loading
Personal Weather Stations






























Interactive Weather Map New forecast layout! Learn more

10-Day Weather Forecast

Advertisements
Track Severe Weather on mobile